sensor_id;sensor_type;location;lat;lon;timestamp;P1;durP1;ratioP1;P2;durP2;ratioP2
10831;SDS011;5469;48.574;8.768;2023-06-10T00:00:04;2.97;;;2.28;;
10831;SDS011;5469;48.574;8.768;2023-06-10T00:02:44;2.13;;;2.00;;
10831;SDS011;5469;48.574;8.768;2023-06-10T00:05:19;2.53;;;2.20;;
10831;SDS011;5469;48.574;8.768;2023-06-10T00:07:56;2.58;;;2.30;;
10831;SDS011;5469;48.574;8.768;2023-06-10T00:10:33;2.38;;;2.17;;
10831;SDS011;5469;48.574;8.768;2023-06-10T00:13:09;2.88;;;2.58;;
10831;SDS011;5469;48.574;8.768;2023-06-10T00:15:44;2.40;;;2.17;;
10831;SDS011;5469;48.574;8.768;2023-06-10T00:18:20;2.22;;;2.03;;
10831;SDS011;5469;48.574;8.768;2023-06-10T00:20:55;3.75;;;2.22;;
10831;SDS011;5469;48.574;8.768;2023-06-10T00:23:37;4.47;;;2.17;;
10831;SDS011;5469;48.574;8.768;2023-06-10T00:26:12;2.40;;;2.20;;
10831;SDS011;5469;48.574;8.768;2023-06-10T00:28:48;2.45;;;2.17;;
10831;SDS011;5469;48.574;8.768;2023-06-10T00:31:24;2.78;;;2.10;;
10831;SDS011;5469;48.574;8.768;2023-06-10T00:33:59;2.45;;;2.25;;
10831;SDS011;5469;48.574;8.768;2023-06-10T00:36:34;2.40;;;2.20;;
10831;SDS011;5469;48.574;8.768;2023-06-10T00:39:10;3.28;;;2.45;;
10831;SDS011;5469;48.574;8.768;2023-06-10T00:41:45;2.85;;;2.58;;
10831;SDS011;5469;48.574;8.768;2023-06-10T00:44:20;3.17;;;2.25;;
10831;SDS011;5469;48.574;8.768;2023-06-10T00:46:54;3.40;;;2.40;;
10831;SDS011;5469;48.574;8.768;2023-06-10T00:49:30;4.05;;;2.40;;
10831;SDS011;5469;48.574;8.768;2023-06-10T00:52:07;2.70;;;2.40;;
10831;SDS011;5469;48.574;8.768;2023-06-10T00:54:45;2.45;;;2.20;;
10831;SDS011;5469;48.574;8.768;2023-06-10T00:57:20;2.40;;;2.17;;
10831;SDS011;5469;48.574;8.768;2023-06-10T00:59:57;2.65;;;2.25;;
10831;SDS011;5469;48.574;8.768;2023-06-10T01:02:32;2.47;;;2.10;;
10831;SDS011;5469;48.574;8.768;2023-06-10T01:05:08;2.05;;;1.95;;
10831;SDS011;5469;48.574;8.768;2023-06-10T01:07:46;1.88;;;1.77;;
10831;SDS011;5469;48.574;8.768;2023-06-10T01:10:31;2.30;;;2.10;;
10831;SDS011;5469;48.574;8.768;2023-06-10T01:13:10;2.40;;;2.20;;
10831;SDS011;5469;48.574;8.768;2023-06-10T01:15:49;3.47;;;1.92;;
10831;SDS011;5469;48.574;8.768;2023-06-10T01:18:29;2.95;;;2.63;;
10831;SDS011;5469;48.574;8.768;2023-06-10T01:21:04;4.05;;;2.10;;
10831;SDS011;5469;48.574;8.768;2023-06-10T01:23:42;2.40;;;1.98;;
10831;SDS011;5469;48.574;8.768;2023-06-10T01:26:17;2.65;;;2.25;;
10831;SDS011;5469;48.574;8.768;2023-06-10T01:29:00;2.05;;;1.90;;
10831;SDS011;5469;48.574;8.768;2023-06-10T01:31:45;2.65;;;2.38;;
10831;SDS011;5469;48.574;8.768;2023-06-10T01:34:27;2.70;;;2.50;;
10831;SDS011;5469;48.574;8.768;2023-06-10T01:37:04;2.78;;;1.95;;
10831;SDS011;5469;48.574;8.768;2023-06-10T01:39:42;2.35;;;2.15;;
10831;SDS011;5469;48.574;8.768;2023-06-10T01:42:18;2.70;;;2.30;;
10831;SDS011;5469;48.574;8.768;2023-06-10T01:44:53;2.65;;;1.90;;
10831;SDS011;5469;48.574;8.768;2023-06-10T01:47:29;2.35;;;2.15;;
10831;SDS011;5469;48.574;8.768;2023-06-10T01:50:04;2.17;;;1.98;;
10831;SDS011;5469;48.574;8.768;2023-06-10T01:52:40;2.45;;;2.25;;
10831;SDS011;5469;48.574;8.768;2023-06-10T01:55:17;3.17;;;2.25;;
10831;SDS011;5469;48.574;8.768;2023-06-10T01:57:52;2.65;;;2.45;;
10831;SDS011;5469;48.574;8.768;2023-06-10T02:00:27;3.83;;;2.45;;
10831;SDS011;5469;48.574;8.768;2023-06-10T02:03:02;2.38;;;2.13;;
10831;SDS011;5469;48.574;8.768;2023-06-10T02:05:37;2.30;;;2.10;;
10831;SDS011;5469;48.574;8.768;2023-06-10T02:08:13;2.45;;;2.25;;
10831;SDS011;5469;48.574;8.768;2023-06-10T02:10:49;2.65;;;2.38;;
10831;SDS011;5469;48.574;8.768;2023-06-10T02:13:24;2.40;;;2.20;;
10831;SDS011;5469;48.574;8.768;2023-06-10T02:15:59;2.83;;;2.53;;
10831;SDS011;5469;48.574;8.768;2023-06-10T02:18:34;3.08;;;2.42;;
10831;SDS011;5469;48.574;8.768;2023-06-10T02:21:12;2.67;;;2.13;;
10831;SDS011;5469;48.574;8.768;2023-06-10T02:23:47;3.17;;;2.38;;
10831;SDS011;5469;48.574;8.768;2023-06-10T02:26:23;2.38;;;2.10;;
10831;SDS011;5469;48.574;8.768;2023-06-10T02:28:58;4.15;;;2.65;;
10831;SDS011;5469;48.574;8.768;2023-06-10T02:31:33;2.55;;;2.35;;
10831;SDS011;5469;48.574;8.768;2023-06-10T02:34:09;2.25;;;2.00;;
10831;SDS011;5469;48.574;8.768;2023-06-10T02:36:44;2.22;;;2.10;;
10831;SDS011;5469;48.574;8.768;2023-06-10T02:39:21;3.85;;;2.10;;
10831;SDS011;5469;48.574;8.768;2023-06-10T02:41:58;2.15;;;2.05;;
10831;SDS011;5469;48.574;8.768;2023-06-10T02:44:33;2.38;;;2.17;;
10831;SDS011;5469;48.574;8.768;2023-06-10T02:47:08;2.80;;;2.60;;
10831;SDS011;5469;48.574;8.768;2023-06-10T02:49:43;2.50;;;2.30;;
10831;SDS011;5469;48.574;8.768;2023-06-10T02:52:18;2.65;;;2.42;;
10831;SDS011;5469;48.574;8.768;2023-06-10T02:54:54;3.40;;;2.58;;
10831;SDS011;5469;48.574;8.768;2023-06-10T02:57:30;2.95;;;2.17;;
10831;SDS011;5469;48.574;8.768;2023-06-10T03:00:06;2.80;;;2.30;;
10831;SDS011;5469;48.574;8.768;2023-06-10T03:02:42;2.53;;;2.25;;
10831;SDS011;5469;48.574;8.768;2023-06-10T03:05:18;2.85;;;2.15;;
10831;SDS011;5469;48.574;8.768;2023-06-10T03:07:54;3.38;;;2.63;;
10831;SDS011;5469;48.574;8.768;2023-06-10T03:10:28;2.33;;;2.13;;
10831;SDS011;5469;48.574;8.768;2023-06-10T03:13:06;4.63;;;2.60;;
10831;SDS011;5469;48.574;8.768;2023-06-10T03:15:41;2.28;;;2.08;;
10831;SDS011;5469;48.574;8.768;2023-06-10T03:18:17;2.60;;;2.40;;
10831;SDS011;5469;48.574;8.768;2023-06-10T03:20:54;2.40;;;2.20;;
10831;SDS011;5469;48.574;8.768;2023-06-10T03:23:30;2.92;;;2.25;;
10831;SDS011;5469;48.574;8.768;2023-06-10T03:26:05;2.97;;;2.03;;
10831;SDS011;5469;48.574;8.768;2023-06-10T03:28:43;2.40;;;2.20;;
10831;SDS011;5469;48.574;8.768;2023-06-10T03:31:18;2.40;;;2.20;;
10831;SDS011;5469;48.574;8.768;2023-06-10T03:33:53;2.70;;;2.43;;
10831;SDS011;5469;48.574;8.768;2023-06-10T03:36:27;2.70;;;2.13;;
10831;SDS011;5469;48.574;8.768;2023-06-10T03:39:02;3.10;;;2.17;;
10831;SDS011;5469;48.574;8.768;2023-06-10T03:41:38;2.20;;;2.00;;
10831;SDS011;5469;48.574;8.768;2023-06-10T03:44:15;2.77;;;2.43;;
10831;SDS011;5469;48.574;8.768;2023-06-10T03:46:52;3.20;;;2.30;;
10831;SDS011;5469;48.574;8.768;2023-06-10T03:49:27;2.90;;;2.63;;
10831;SDS011;5469;48.574;8.768;2023-06-10T03:52:02;2.97;;;2.22;;
10831;SDS011;5469;48.574;8.768;2023-06-10T03:54:38;3.33;;;2.47;;
10831;SDS011;5469;48.574;8.768;2023-06-10T03:57:13;2.13;;;2.00;;
10831;SDS011;5469;48.574;8.768;2023-06-10T03:59:49;2.60;;;2.27;;
10831;SDS011;5469;48.574;8.768;2023-06-10T04:02:25;2.80;;;2.30;;
10831;SDS011;5469;48.574;8.768;2023-06-10T04:05:00;2.77;;;2.30;;
10831;SDS011;5469;48.574;8.768;2023-06-10T04:07:35;3.30;;;2.50;;
10831;SDS011;5469;48.574;8.768;2023-06-10T04:10:11;2.23;;;1.93;;
10831;SDS011;5469;48.574;8.768;2023-06-10T04:12:47;2.53;;;2.30;;
10831;SDS011;5469;48.574;8.768;2023-06-10T04:15:24;2.92;;;2.60;;
10831;SDS011;5469;48.574;8.768;2023-06-10T04:17:59;2.13;;;2.03;;
10831;SDS011;5469;48.574;8.768;2023-06-10T04:20:34;2.90;;;2.27;;
10831;SDS011;5469;48.574;8.768;2023-06-10T04:23:09;2.40;;;2.20;;
10831;SDS011;5469;48.574;8.768;2023-06-10T04:25:44;2.60;;;2.40;;
10831;SDS011;5469;48.574;8.768;2023-06-10T04:28:19;2.33;;;2.13;;
10831;SDS011;5469;48.574;8.768;2023-06-10T04:30:55;2.77;;;2.53;;
10831;SDS011;5469;48.574;8.768;2023-06-10T04:33:31;2.20;;;2.00;;
10831;SDS011;5469;48.574;8.768;2023-06-10T04:36:06;2.20;;;1.97;;
10831;SDS011;5469;48.574;8.768;2023-06-10T04:38:42;2.37;;;2.17;;
10831;SDS011;5469;48.574;8.768;2023-06-10T04:41:17;2.80;;;2.60;;
10831;SDS011;5469;48.574;8.768;2023-06-10T04:43:52;2.60;;;2.27;;
10831;SDS011;5469;48.574;8.768;2023-06-10T04:46:28;2.87;;;2.40;;
10831;SDS011;5469;48.574;8.768;2023-06-10T04:49:03;2.67;;;2.30;;
10831;SDS011;5469;48.574;8.768;2023-06-10T04:51:38;4.63;;;2.80;;
10831;SDS011;5469;48.574;8.768;2023-06-10T04:54:13;2.80;;;2.23;;
10831;SDS011;5469;48.574;8.768;2023-06-10T04:56:48;2.97;;;2.47;;
10831;SDS011;5469;48.574;8.768;2023-06-10T04:59:23;3.40;;;2.37;;
10831;SDS011;5469;48.574;8.768;2023-06-10T05:02:00;2.43;;;2.23;;
10831;SDS011;5469;48.574;8.768;2023-06-10T05:04:36;2.70;;;2.50;;
10831;SDS011;5469;48.574;8.768;2023-06-10T05:07:11;2.30;;;2.10;;
10831;SDS011;5469;48.574;8.768;2023-06-10T05:09:47;3.43;;;2.40;;
10831;SDS011;5469;48.574;8.768;2023-06-10T05:12:22;2.47;;;2.27;;
10831;SDS011;5469;48.574;8.768;2023-06-10T05:14:57;2.30;;;2.10;;
10831;SDS011;5469;48.574;8.768;2023-06-10T05:17:34;3.23;;;2.00;;
10831;SDS011;5469;48.574;8.768;2023-06-10T05:20:09;2.23;;;2.03;;
10831;SDS011;5469;48.574;8.768;2023-06-10T05:22:46;2.60;;;2.23;;
10831;SDS011;5469;48.574;8.768;2023-06-10T05:25:21;2.30;;;2.10;;
10831;SDS011;5469;48.574;8.768;2023-06-10T05:27:58;2.47;;;2.10;;
10831;SDS011;5469;48.574;8.768;2023-06-10T05:30:34;2.03;;;1.87;;
10831;SDS011;5469;48.574;8.768;2023-06-10T05:33:10;2.37;;;2.17;;
10831;SDS011;5469;48.574;8.768;2023-06-10T05:35:45;2.47;;;2.00;;
10831;SDS011;5469;48.574;8.768;2023-06-10T05:38:20;2.47;;;2.10;;
10831;SDS011;5469;48.574;8.768;2023-06-10T05:40:55;2.13;;;1.93;;
10831;SDS011;5469;48.574;8.768;2023-06-10T05:43:30;2.40;;;2.10;;
10831;SDS011;5469;48.574;8.768;2023-06-10T05:46:05;2.60;;;2.20;;
10831;SDS011;5469;48.574;8.768;2023-06-10T05:48:42;2.43;;;2.23;;
10831;SDS011;5469;48.574;8.768;2023-06-10T05:51:17;3.17;;;2.07;;
10831;SDS011;5469;48.574;8.768;2023-06-10T05:53:51;2.60;;;2.40;;
10831;SDS011;5469;48.574;8.768;2023-06-10T05:56:26;3.43;;;2.50;;
10831;SDS011;5469;48.574;8.768;2023-06-10T05:59:01;2.47;;;2.23;;
10831;SDS011;5469;48.574;8.768;2023-06-10T06:01:36;3.77;;;2.40;;
10831;SDS011;5469;48.574;8.768;2023-06-10T06:04:13;2.23;;;2.03;;
10831;SDS011;5469;48.574;8.768;2023-06-10T06:06:49;4.10;;;2.33;;
10831;SDS011;5469;48.574;8.768;2023-06-10T06:09:23;3.47;;;2.33;;
10831;SDS011;5469;48.574;8.768;2023-06-10T06:11:58;2.30;;;2.10;;
10831;SDS011;5469;48.574;8.768;2023-06-10T06:14:36;2.47;;;2.20;;
10831;SDS011;5469;48.574;8.768;2023-06-10T06:17:12;3.20;;;2.07;;
10831;SDS011;5469;48.574;8.768;2023-06-10T06:19:48;2.23;;;2.00;;
10831;SDS011;5469;48.574;8.768;2023-06-10T06:22:23;2.20;;;2.00;;
10831;SDS011;5469;48.574;8.768;2023-06-10T06:24:58;2.80;;;2.30;;
10831;SDS011;5469;48.574;8.768;2023-06-10T06:27:33;2.17;;;1.83;;
10831;SDS011;5469;48.574;8.768;2023-06-10T06:30:08;2.17;;;2.00;;
10831;SDS011;5469;48.574;8.768;2023-06-10T06:32:45;2.60;;;1.90;;
10831;SDS011;5469;48.574;8.768;2023-06-10T06:35:21;3.20;;;2.08;;
10831;SDS011;5469;48.574;8.768;2023-06-10T06:37:56;2.10;;;1.90;;
10831;SDS011;5469;48.574;8.768;2023-06-10T06:40:31;3.10;;;1.93;;
10831;SDS011;5469;48.574;8.768;2023-06-10T06:43:07;2.13;;;1.90;;
10831;SDS011;5469;48.574;8.768;2023-06-10T06:45:42;6.20;;;2.20;;
10831;SDS011;5469;48.574;8.768;2023-06-10T06:48:17;2.40;;;2.20;;
10831;SDS011;5469;48.574;8.768;2023-06-10T06:50:54;2.50;;;2.30;;
10831;SDS011;5469;48.574;8.768;2023-06-10T06:53:29;2.80;;;2.50;;
10831;SDS011;5469;48.574;8.768;2023-06-10T06:56:04;2.80;;;2.27;;
10831;SDS011;5469;48.574;8.768;2023-06-10T06:58:40;2.60;;;2.40;;
10831;SDS011;5469;48.574;8.768;2023-06-10T07:01:16;2.33;;;2.10;;
10831;SDS011;5469;48.574;8.768;2023-06-10T07:03:52;2.53;;;2.30;;
10831;SDS011;5469;48.574;8.768;2023-06-10T07:06:29;2.20;;;2.00;;
10831;SDS011;5469;48.574;8.768;2023-06-10T07:09:04;2.93;;;2.10;;
10831;SDS011;5469;48.574;8.768;2023-06-10T07:11:40;3.00;;;2.70;;
10831;SDS011;5469;48.574;8.768;2023-06-10T07:14:15;2.43;;;2.23;;
10831;SDS011;5469;48.574;8.768;2023-06-10T07:16:52;4.40;;;2.83;;
10831;SDS011;5469;48.574;8.768;2023-06-10T07:19:27;3.87;;;3.30;;
10831;SDS011;5469;48.574;8.768;2023-06-10T07:22:03;7.70;;;3.17;;
10831;SDS011;5469;48.574;8.768;2023-06-10T07:24:39;6.57;;;3.20;;
10831;SDS011;5469;48.574;8.768;2023-06-10T07:27:14;3.55;;;3.25;;
10831;SDS011;5469;48.574;8.768;2023-06-10T07:29:48;3.03;;;2.67;;
10831;SDS011;5469;48.574;8.768;2023-06-10T07:32:24;4.30;;;2.53;;
10831;SDS011;5469;48.574;8.768;2023-06-10T07:34:59;3.13;;;2.50;;
10831;SDS011;5469;48.574;8.768;2023-06-10T07:37:36;3.40;;;2.77;;
10831;SDS011;5469;48.574;8.768;2023-06-10T07:40:11;2.80;;;2.47;;
10831;SDS011;5469;48.574;8.768;2023-06-10T07:42:47;3.10;;;2.47;;
10831;SDS011;5469;48.574;8.768;2023-06-10T07:45:22;3.10;;;2.80;;
10831;SDS011;5469;48.574;8.768;2023-06-10T07:47:58;3.20;;;2.87;;
10831;SDS011;5469;48.574;8.768;2023-06-10T07:50:33;3.25;;;2.38;;
10831;SDS011;5469;48.574;8.768;2023-06-10T07:53:09;2.50;;;2.30;;
10831;SDS011;5469;48.574;8.768;2023-06-10T07:55:45;2.50;;;2.30;;
10831;SDS011;5469;48.574;8.768;2023-06-10T07:58:21;2.63;;;2.43;;
10831;SDS011;5469;48.574;8.768;2023-06-10T08:00:56;2.90;;;2.50;;
10831;SDS011;5469;48.574;8.768;2023-06-10T08:03:31;4.38;;;2.58;;
10831;SDS011;5469;48.574;8.768;2023-06-10T08:06:06;3.03;;;2.80;;
10831;SDS011;5469;48.574;8.768;2023-06-10T08:08:44;2.78;;;2.13;;
10831;SDS011;5469;48.574;8.768;2023-06-10T08:11:19;2.33;;;2.00;;
10831;SDS011;5469;48.574;8.768;2023-06-10T08:13:55;2.43;;;2.20;;
10831;SDS011;5469;48.574;8.768;2023-06-10T08:16:31;2.78;;;2.50;;
10831;SDS011;5469;48.574;8.768;2023-06-10T08:19:06;2.75;;;2.38;;
10831;SDS011;5469;48.574;8.768;2023-06-10T08:21:41;2.38;;;2.17;;
10831;SDS011;5469;48.574;8.768;2023-06-10T08:24:18;3.47;;;2.10;;
10831;SDS011;5469;48.574;8.768;2023-06-10T08:26:53;2.90;;;2.10;;
10831;SDS011;5469;48.574;8.768;2023-06-10T08:29:29;2.83;;;2.10;;
10831;SDS011;5469;48.574;8.768;2023-06-10T08:32:04;2.33;;;2.13;;
10831;SDS011;5469;48.574;8.768;2023-06-10T08:34:39;2.78;;;2.20;;
10831;SDS011;5469;48.574;8.768;2023-06-10T08:37:14;3.03;;;2.38;;
10831;SDS011;5469;48.574;8.768;2023-06-10T08:39:51;2.10;;;1.90;;
10831;SDS011;5469;48.574;8.768;2023-06-10T08:42:27;2.63;;;2.15;;
10831;SDS011;5469;48.574;8.768;2023-06-10T08:45:10;3.72;;;2.05;;
10831;SDS011;5469;48.574;8.768;2023-06-10T08:47:50;2.60;;;2.40;;
10831;SDS011;5469;48.574;8.768;2023-06-10T08:50:26;2.92;;;2.13;;
10831;SDS011;5469;48.574;8.768;2023-06-10T08:53:04;2.20;;;1.65;;
10831;SDS011;5469;48.574;8.768;2023-06-10T08:55:42;1.95;;;1.85;;
10831;SDS011;5469;48.574;8.768;2023-06-10T08:58:19;1.98;;;1.77;;
10831;SDS011;5469;48.574;8.768;2023-06-10T09:00:55;2.45;;;2.13;;
10831;SDS011;5469;48.574;8.768;2023-06-10T09:03:31;1.95;;;1.75;;
10831;SDS011;5469;48.574;8.768;2023-06-10T09:06:07;1.83;;;1.50;;
10831;SDS011;5469;48.574;8.768;2023-06-10T09:08:43;2.03;;;1.88;;
10831;SDS011;5469;48.574;8.768;2023-06-10T09:11:20;2.80;;;1.80;;
10831;SDS011;5469;48.574;8.768;2023-06-10T09:13:55;1.52;;;1.35;;
10831;SDS011;5469;48.574;8.768;2023-06-10T09:16:31;2.22;;;2.03;;
10831;SDS011;5469;48.574;8.768;2023-06-10T09:19:07;1.40;;;1.30;;
10831;SDS011;5469;48.574;8.768;2023-06-10T09:21:43;2.47;;;2.13;;
10831;SDS011;5469;48.574;8.768;2023-06-10T09:24:18;2.30;;;1.80;;
10831;SDS011;5469;48.574;8.768;2023-06-10T09:27:03;2.13;;;1.92;;
10831;SDS011;5469;48.574;8.768;2023-06-10T09:29:45;2.28;;;1.95;;
10831;SDS011;5469;48.574;8.768;2023-06-10T09:32:24;1.65;;;1.55;;
10831;SDS011;5469;48.574;8.768;2023-06-10T09:34:59;1.50;;;1.40;;
10831;SDS011;5469;48.574;8.768;2023-06-10T09:37:41;2.95;;;2.03;;
10831;SDS011;5469;48.574;8.768;2023-06-10T09:40:22;1.80;;;1.50;;
10831;SDS011;5469;48.574;8.768;2023-06-10T09:43:00;2.38;;;2.13;;
10831;SDS011;5469;48.574;8.768;2023-06-10T09:45:35;2.17;;;1.90;;
10831;SDS011;5469;48.574;8.768;2023-06-10T09:48:11;1.65;;;1.52;;
10831;SDS011;5469;48.574;8.768;2023-06-10T09:50:46;1.80;;;1.70;;
10831;SDS011;5469;48.574;8.768;2023-06-10T09:53:22;1.85;;;1.70;;
10831;SDS011;5469;48.574;8.768;2023-06-10T09:55:57;4.50;;;2.58;;
10831;SDS011;5469;48.574;8.768;2023-06-10T09:58:35;2.17;;;1.83;;
10831;SDS011;5469;48.574;8.768;2023-06-10T10:01:12;2.67;;;1.90;;
10831;SDS011;5469;48.574;8.768;2023-06-10T10:03:48;2.05;;;1.85;;
10831;SDS011;5469;48.574;8.768;2023-06-10T10:06:24;2.78;;;1.88;;
10831;SDS011;5469;48.574;8.768;2023-06-10T10:09:00;3.13;;;1.83;;
10831;SDS011;5469;48.574;8.768;2023-06-10T10:11:36;3.08;;;2.33;;
10831;SDS011;5469;48.574;8.768;2023-06-10T10:14:15;2.22;;;2.03;;
10831;SDS011;5469;48.574;8.768;2023-06-10T10:16:53;1.75;;;1.65;;
10831;SDS011;5469;48.574;8.768;2023-06-10T10:19:31;1.98;;;1.80;;
10831;SDS011;5469;48.574;8.768;2023-06-10T10:22:11;2.00;;;1.85;;
10831;SDS011;5469;48.574;8.768;2023-06-10T10:24:53;1.52;;;1.42;;
10831;SDS011;5469;48.574;8.768;2023-06-10T10:27:35;1.95;;;1.85;;
10831;SDS011;5469;48.574;8.768;2023-06-10T10:30:16;2.28;;;2.08;;
10831;SDS011;5469;48.574;8.768;2023-06-10T10:32:56;2.17;;;1.98;;
10831;SDS011;5469;48.574;8.768;2023-06-10T10:35:37;2.17;;;2.00;;
10831;SDS011;5469;48.574;8.768;2023-06-10T10:38:14;1.70;;;1.52;;
10831;SDS011;5469;48.574;8.768;2023-06-10T10:40:50;1.83;;;1.63;;
10831;SDS011;5469;48.574;8.768;2023-06-10T10:43:31;2.17;;;1.90;;
10831;SDS011;5469;48.574;8.768;2023-06-10T10:46:11;1.80;;;1.70;;
10831;SDS011;5469;48.574;8.768;2023-06-10T10:48:51;1.88;;;1.50;;
10831;SDS011;5469;48.574;8.768;2023-06-10T10:51:30;1.60;;;1.50;;
10831;SDS011;5469;48.574;8.768;2023-06-10T10:54:12;1.58;;;1.48;;
10831;SDS011;5469;48.574;8.768;2023-06-10T10:59:51;2.00;;;1.85;;
10831;SDS011;5469;48.574;8.768;2023-06-10T11:02:33;3.53;;;2.25;;
10831;SDS011;5469;48.574;8.768;2023-06-10T11:05:13;2.45;;;2.03;;
10831;SDS011;5469;48.574;8.768;2023-06-10T11:07:51;2.03;;;1.83;;
10831;SDS011;5469;48.574;8.768;2023-06-10T11:10:28;1.80;;;1.70;;
10831;SDS011;5469;48.574;8.768;2023-06-10T11:13:05;1.90;;;1.75;;
10831;SDS011;5469;48.574;8.768;2023-06-10T11:15:43;1.90;;;1.80;;
10831;SDS011;5469;48.574;8.768;2023-06-10T11:18:23;2.15;;;1.67;;
10831;SDS011;5469;48.574;8.768;2023-06-10T11:20:59;1.90;;;1.70;;
10831;SDS011;5469;48.574;8.768;2023-06-10T11:23:40;2.10;;;1.90;;
10831;SDS011;5469;48.574;8.768;2023-06-10T11:26:17;2.03;;;1.70;;
10831;SDS011;5469;48.574;8.768;2023-06-10T11:29:09;2.50;;;1.80;;
10831;SDS011;5469;48.574;8.768;2023-06-10T11:31:49;1.65;;;1.55;;
10831;SDS011;5469;48.574;8.768;2023-06-10T11:34:26;1.50;;;1.40;;
10831;SDS011;5469;48.574;8.768;2023-06-10T11:37:01;1.45;;;1.35;;
10831;SDS011;5469;48.574;8.768;2023-06-10T11:39:38;1.60;;;1.50;;
10831;SDS011;5469;48.574;8.768;2023-06-10T11:42:13;1.73;;;1.27;;
10831;SDS011;5469;48.574;8.768;2023-06-10T11:44:49;1.50;;;1.40;;
10831;SDS011;5469;48.574;8.768;2023-06-10T11:47:25;1.48;;;1.38;;
10831;SDS011;5469;48.574;8.768;2023-06-10T11:50:02;1.27;;;1.20;;
10831;SDS011;5469;48.574;8.768;2023-06-10T11:52:38;1.33;;;1.23;;
10831;SDS011;5469;48.574;8.768;2023-06-10T11:55:13;1.63;;;1.52;;
10831;SDS011;5469;48.574;8.768;2023-06-10T11:57:49;1.83;;;1.73;;
10831;SDS011;5469;48.574;8.768;2023-06-10T12:00:32;1.58;;;1.48;;
10831;SDS011;5469;48.574;8.768;2023-06-10T12:03:07;1.90;;;1.30;;
10831;SDS011;5469;48.574;8.768;2023-06-10T12:05:55;1.88;;;1.77;;
10831;SDS011;5469;48.574;8.768;2023-06-10T12:08:32;1.38;;;1.27;;
10831;SDS011;5469;48.574;8.768;2023-06-10T12:11:15;1.40;;;1.30;;
10831;SDS011;5469;48.574;8.768;2023-06-10T12:13:52;1.52;;;1.42;;
10831;SDS011;5469;48.574;8.768;2023-06-10T12:16:27;2.03;;;1.83;;
10831;SDS011;5469;48.574;8.768;2023-06-10T12:19:02;1.80;;;1.70;;
10831;SDS011;5469;48.574;8.768;2023-06-10T12:21:40;1.48;;;1.38;;
10831;SDS011;5469;48.574;8.768;2023-06-10T12:24:17;1.92;;;1.80;;
10831;SDS011;5469;48.574;8.768;2023-06-10T12:26:53;2.85;;;1.73;;
10831;SDS011;5469;48.574;8.768;2023-06-10T12:29:28;2.05;;;1.90;;
10831;SDS011;5469;48.574;8.768;2023-06-10T12:32:04;1.30;;;1.20;;
10831;SDS011;5469;48.574;8.768;2023-06-10T12:34:41;2.83;;;1.60;;
10831;SDS011;5469;48.574;8.768;2023-06-10T12:37:18;2.35;;;1.42;;
10831;SDS011;5469;48.574;8.768;2023-06-10T12:39:53;1.70;;;1.60;;
10831;SDS011;5469;48.574;8.768;2023-06-10T12:42:30;1.52;;;1.42;;
10831;SDS011;5469;48.574;8.768;2023-06-10T12:45:07;2.33;;;1.48;;
10831;SDS011;5469;48.574;8.768;2023-06-10T12:47:44;1.60;;;1.50;;
10831;SDS011;5469;48.574;8.768;2023-06-10T12:50:19;1.65;;;1.55;;
10831;SDS011;5469;48.574;8.768;2023-06-10T12:52:55;1.42;;;1.27;;
10831;SDS011;5469;48.574;8.768;2023-06-10T12:55:30;1.58;;;1.48;;
10831;SDS011;5469;48.574;8.768;2023-06-10T12:58:05;1.70;;;1.58;;
10831;SDS011;5469;48.574;8.768;2023-06-10T13:00:41;1.40;;;1.30;;
10831;SDS011;5469;48.574;8.768;2023-06-10T13:03:17;1.55;;;1.38;;
10831;SDS011;5469;48.574;8.768;2023-06-10T13:05:52;1.17;;;1.10;;
10831;SDS011;5469;48.574;8.768;2023-06-10T13:08:28;1.88;;;1.58;;
10831;SDS011;5469;48.574;8.768;2023-06-10T13:11:04;1.58;;;1.27;;
10831;SDS011;5469;48.574;8.768;2023-06-10T13:13:39;1.45;;;1.35;;
10831;SDS011;5469;48.574;8.768;2023-06-10T13:16:14;2.97;;;1.52;;
10831;SDS011;5469;48.574;8.768;2023-06-10T13:18:49;1.75;;;1.65;;
10831;SDS011;5469;48.574;8.768;2023-06-10T13:21:25;1.50;;;1.40;;
10831;SDS011;5469;48.574;8.768;2023-06-10T13:24:01;1.65;;;1.55;;
10831;SDS011;5469;48.574;8.768;2023-06-10T13:26:37;1.85;;;1.40;;
10831;SDS011;5469;48.574;8.768;2023-06-10T13:29:12;2.95;;;1.60;;
10831;SDS011;5469;48.574;8.768;2023-06-10T13:31:47;2.17;;;1.50;;
10831;SDS011;5469;48.574;8.768;2023-06-10T13:34:22;1.50;;;1.40;;
10831;SDS011;5469;48.574;8.768;2023-06-10T13:36:57;1.73;;;1.55;;
10831;SDS011;5469;48.574;8.768;2023-06-10T13:39:33;1.50;;;1.40;;
10831;SDS011;5469;48.574;8.768;2023-06-10T13:42:09;1.55;;;1.23;;
10831;SDS011;5469;48.574;8.768;2023-06-10T13:44:45;2.40;;;1.70;;
10831;SDS011;5469;48.574;8.768;2023-06-10T13:47:21;1.60;;;1.50;;
10831;SDS011;5469;48.574;8.768;2023-06-10T13:49:56;1.80;;;1.63;;
10831;SDS011;5469;48.574;8.768;2023-06-10T13:52:31;1.52;;;1.42;;
10831;SDS011;5469;48.574;8.768;2023-06-10T13:55:09;2.03;;;1.70;;
10831;SDS011;5469;48.574;8.768;2023-06-10T13:57:44;1.65;;;1.55;;
10831;SDS011;5469;48.574;8.768;2023-06-10T14:00:19;2.20;;;1.70;;
10831;SDS011;5469;48.574;8.768;2023-06-10T14:02:54;2.28;;;1.77;;
10831;SDS011;5469;48.574;8.768;2023-06-10T14:05:29;2.00;;;1.90;;
10831;SDS011;5469;48.574;8.768;2023-06-10T14:08:05;1.92;;;1.73;;
10831;SDS011;5469;48.574;8.768;2023-06-10T14:10:41;2.50;;;1.80;;
10831;SDS011;5469;48.574;8.768;2023-06-10T14:13:16;1.60;;;1.50;;
10831;SDS011;5469;48.574;8.768;2023-06-10T14:15:51;1.63;;;1.52;;
10831;SDS011;5469;48.574;8.768;2023-06-10T14:18:28;2.05;;;1.55;;
10831;SDS011;5469;48.574;8.768;2023-06-10T14:21:04;2.95;;;1.90;;
10831;SDS011;5469;48.574;8.768;2023-06-10T14:23:39;1.50;;;1.40;;
10831;SDS011;5469;48.574;8.768;2023-06-10T14:26:17;1.70;;;1.45;;
10831;SDS011;5469;48.574;8.768;2023-06-10T14:28:53;2.50;;;1.83;;
10831;SDS011;5469;48.574;8.768;2023-06-10T14:31:28;1.77;;;1.60;;
10831;SDS011;5469;48.574;8.768;2023-06-10T14:34:03;2.00;;;1.80;;
10831;SDS011;5469;48.574;8.768;2023-06-10T14:36:39;2.13;;;1.92;;
10831;SDS011;5469;48.574;8.768;2023-06-10T14:39:14;1.65;;;1.55;;
10831;SDS011;5469;48.574;8.768;2023-06-10T14:41:50;1.48;;;1.38;;
10831;SDS011;5469;48.574;8.768;2023-06-10T14:44:25;2.38;;;2.10;;
10831;SDS011;5469;48.574;8.768;2023-06-10T14:47:01;1.35;;;1.25;;
10831;SDS011;5469;48.574;8.768;2023-06-10T14:49:37;1.60;;;1.50;;
10831;SDS011;5469;48.574;8.768;2023-06-10T14:52:13;2.70;;;1.80;;
10831;SDS011;5469;48.574;8.768;2023-06-10T14:54:49;1.75;;;1.65;;
10831;SDS011;5469;48.574;8.768;2023-06-10T14:57:26;2.00;;;1.85;;
10831;SDS011;5469;48.574;8.768;2023-06-10T15:00:01;2.33;;;1.60;;
10831;SDS011;5469;48.574;8.768;2023-06-10T15:02:38;1.73;;;1.50;;
10831;SDS011;5469;48.574;8.768;2023-06-10T15:05:13;1.58;;;1.45;;
10831;SDS011;5469;48.574;8.768;2023-06-10T15:07:50;1.83;;;1.73;;
10831;SDS011;5469;48.574;8.768;2023-06-10T15:10:25;2.25;;;1.50;;
10831;SDS011;5469;48.574;8.768;2023-06-10T15:13:02;1.88;;;1.63;;
10831;SDS011;5469;48.574;8.768;2023-06-10T15:15:37;1.80;;;1.70;;
10831;SDS011;5469;48.574;8.768;2023-06-10T15:18:12;1.45;;;1.13;;
10831;SDS011;5469;48.574;8.768;2023-06-10T15:20:47;1.17;;;1.13;;
10831;SDS011;5469;48.574;8.768;2023-06-10T15:23:21;1.38;;;1.27;;
10831;SDS011;5469;48.574;8.768;2023-06-10T15:25:56;1.67;;;1.58;;
10831;SDS011;5469;48.574;8.768;2023-06-10T15:28:33;1.92;;;1.75;;
10831;SDS011;5469;48.574;8.768;2023-06-10T15:31:08;1.80;;;1.70;;
10831;SDS011;5469;48.574;8.768;2023-06-10T15:33:43;1.48;;;1.38;;
10831;SDS011;5469;48.574;8.768;2023-06-10T15:36:18;1.80;;;1.70;;
10831;SDS011;5469;48.574;8.768;2023-06-10T15:38:53;1.75;;;1.60;;
10831;SDS011;5469;48.574;8.768;2023-06-10T15:41:33;3.40;;;1.70;;
10831;SDS011;5469;48.574;8.768;2023-06-10T15:44:10;1.52;;;1.42;;
10831;SDS011;5469;48.574;8.768;2023-06-10T15:46:48;2.17;;;1.55;;
10831;SDS011;5469;48.574;8.768;2023-06-10T15:49:23;1.80;;;1.70;;
10831;SDS011;5469;48.574;8.768;2023-06-10T15:51:58;2.45;;;1.70;;
10831;SDS011;5469;48.574;8.768;2023-06-10T15:54:33;1.88;;;1.60;;
10831;SDS011;5469;48.574;8.768;2023-06-10T15:57:08;1.33;;;1.23;;